Time;durP1;ratioP1;P1;durP2;ratioP2;P2;SDS_P1;SDS_P2;PMS_P1;PMS_P2;Temp;Humidity;BMP_temperature;BMP_pressure;BME280_temperature;BME280_humidity;BME280_pressure;Samples;Min_cycle;Max_cycle;Signal;HPM_P1;HPM_P2
2022/04/25 00:02:30;;;;;;;0.40;0.40;;;18.80;99.90;;;;;;5032354;28;20256;-76
2022/04/25 00:05:01;;;;;;;1.15;0.50;;;18.90;99.90;;;;;;5037921;28;20282;-76
2022/04/25 00:07:32;;;;;;;0.47;0.30;;;19.00;99.90;;;;;;5033291;28;20186;-77
2022/04/25 00:10:02;;;;;;;0.65;0.40;;;19.10;99.90;;;;;;5031103;28;20206;-78
2022/04/25 00:12:35;;;;;;;0.20;0.20;;;19.10;99.90;;;;;;5032930;28;20191;-77
2022/04/25 00:15:05;;;;;;;0.40;0.40;;;19.40;99.90;;;;;;5033877;28;20203;-82
2022/04/25 00:17:36;;;;;;;0.38;0.35;;;19.50;99.90;;;;;;5036118;28;20206;-78
2022/04/25 00:20:10;;;;;;;1.65;0.52;;;19.60;99.90;;;;;;5027348;28;20708;-74
2022/04/25 00:22:40;;;;;;;1.15;0.50;;;19.70;99.90;;;;;;5030378;28;20202;-76
2022/04/25 00:25:12;;;;;;;2.40;0.40;;;19.80;99.90;;;;;;5032644;28;20603;-75
2022/04/25 00:27:44;;;;;;;0.50;0.50;;;19.90;99.90;;;;;;5032203;28;20198;-76
2022/04/25 00:30:15;;;;;;;0.93;0.40;;;19.90;99.90;;;;;;5031194;28;20198;-75
2022/04/25 00:32:46;;;;;;;0.25;0.25;;;20.00;99.90;;;;;;5040360;28;20272;-74
2022/04/25 00:35:16;;;;;;;0.43;0.32;;;20.00;99.90;;;;;;5030142;28;20672;-77
2022/04/25 00:37:47;;;;;;;0.30;0.30;;;20.00;99.90;;;;;;5031725;28;20205;-76
2022/04/25 00:40:20;;;;;;;0.40;0.40;;;20.00;99.90;;;;;;5030946;28;20218;-78
2022/04/25 00:42:53;;;;;;;0.75;0.40;;;20.10;99.90;;;;;;5031666;28;20208;-76
2022/04/25 00:45:24;;;;;;;1.17;0.40;;;20.10;99.90;;;;;;5037030;28;20241;-76
2022/04/25 00:47:54;;;;;;;0.20;0.20;;;20.20;99.90;;;;;;5030236;28;20206;-74
2022/04/25 00:50:25;;;;;;;1.00;0.30;;;20.40;99.90;;;;;;5029362;28;20202;-75
2022/04/25 00:52:55;;;;;;;0.40;0.30;;;20.60;99.90;;;;;;5031354;28;20233;-76
2022/04/25 00:55:27;;;;;;;0.30;0.30;;;20.70;99.90;;;;;;5033271;28;20194;-76
2022/04/25 00:58:00;;;;;;;0.28;0.20;;;20.70;99.90;;;;;;5030151;28;20195;-75
2022/04/25 01:00:31;;;;;;;0.80;0.30;;;20.80;99.90;;;;;;5032132;28;20219;-75
2022/04/25 01:03:02;;;;;;;0.75;0.30;;;20.80;99.90;;;;;;5032170;28;20198;-77
2022/04/25 01:05:32;;;;;;;1.33;0.40;;;20.90;99.90;;;;;;5031183;28;20194;-75
2022/04/25 01:08:03;;;;;;;0.93;0.40;;;20.70;99.90;;;;;;5031301;28;20598;-76
2022/04/25 01:10:34;;;;;;;0.50;0.40;;;20.60;99.90;;;;;;5032284;28;20189;-76
2022/04/25 01:13:06;;;;;;;0.30;0.30;;;20.50;99.90;;;;;;5031228;28;20249;-76
2022/04/25 01:15:37;;;;;;;1.10;0.40;;;20.50;99.90;;;;;;5024079;28;20199;-79
2022/04/25 01:18:08;;;;;;;1.80;0.40;;;20.50;99.90;;;;;;5031055;28;20586;-79
2022/04/25 01:20:38;;;;;;;0.57;0.40;;;20.50;99.90;;;;;;5033322;28;20213;-78
2022/04/25 01:28:51;;;;;;;0.43;0.30;;;20.70;99.90;;;;;;5032437;28;20244;-79
2022/04/25 01:31:22;;;;;;;0.43;0.43;;;20.70;99.90;;;;;;5036041;28;20191;-78
2022/04/25 01:33:53;;;;;;;1.55;0.40;;;20.70;99.90;;;;;;5035073;28;20640;-78
2022/04/25 01:36:26;;;;;;;0.95;0.40;;;20.80;99.90;;;;;;5039195;28;20648;-79
2022/04/25 01:38:59;;;;;;;2.03;0.38;;;20.90;99.90;;;;;;5036595;28;20673;-77
2022/04/25 01:41:29;;;;;;;0.75;0.50;;;20.80;99.90;;;;;;5040386;28;20574;-79
2022/04/25 01:44:00;;;;;;;1.08;0.45;;;20.90;99.90;;;;;;5035773;28;20241;-75
2022/04/25 01:46:30;;;;;;;0.90;0.40;;;20.80;99.90;;;;;;5035563;28;20201;-74
2022/04/25 01:49:01;;;;;;;0.90;0.50;;;20.80;99.90;;;;;;5037121;28;20194;-75
2022/04/25 01:51:32;;;;;;;1.63;0.50;;;20.70;99.90;;;;;;5034153;28;20234;-77
2022/04/25 01:54:04;;;;;;;1.35;0.43;;;20.70;99.90;;;;;;5035220;28;20637;-80
2022/04/25 01:56:35;;;;;;;0.30;0.30;;;20.60;99.90;;;;;;5038888;28;20187;-80
2022/04/25 01:59:05;;;;;;;0.60;0.50;;;20.40;99.90;;;;;;5044284;28;20214;-79
2022/04/25 02:01:36;;;;;;;0.57;0.40;;;20.50;99.90;;;;;;5038251;28;20194;-79
2022/04/25 02:04:07;;;;;;;1.33;0.50;;;20.50;99.90;;;;;;5036742;28;20186;-81
2022/04/25 02:06:38;;;;;;;1.30;0.40;;;20.40;99.90;;;;;;5041418;28;20563;-79
2022/04/25 02:09:10;;;;;;;0.55;0.32;;;20.40;99.90;;;;;;5043726;28;20190;-80
2022/04/25 02:11:41;;;;;;;10.68;5.53;;;20.50;99.90;;;;;;5033914;28;20193;-78
2022/04/25 02:14:11;;;;;;;1.77;0.90;;;20.60;99.90;;;;;;5036205;28;20194;-76
2022/04/25 02:16:42;;;;;;;2.67;1.38;;;20.80;99.90;;;;;;5041563;28;20200;-76
2022/04/25 02:19:13;;;;;;;1.00;0.40;;;21.20;99.90;;;;;;5041186;28;20209;-77
2022/04/25 02:21:43;;;;;;;1.48;0.50;;;21.50;99.90;;;;;;5043792;28;20194;-80
2022/04/25 02:24:16;;;;;;;2.15;0.57;;;21.80;99.90;;;;;;5041739;28;20193;-79
2022/04/25 02:26:46;;;;;;;3.05;0.70;;;21.90;99.90;;;;;;5045682;28;20237;-79
2022/04/25 02:29:18;;;;;;;1.15;0.40;;;22.10;99.90;;;;;;5036135;28;20183;-79
2022/04/25 02:31:49;;;;;;;0.40;0.40;;;22.10;99.90;;;;;;5032930;28;20638;-79
2022/04/25 02:34:20;;;;;;;2.58;1.10;;;21.90;99.90;;;;;;5040586;28;20209;-79
2022/04/25 02:36:50;;;;;;;4.25;2.60;;;21.70;99.90;;;;;;5037371;28;20194;-75
2022/04/25 02:39:23;;;;;;;3.15;2.20;;;21.60;99.90;;;;;;5031721;28;20264;-74
2022/04/25 02:41:54;;;;;;;2.28;0.77;;;21.40;99.90;;;;;;5036874;28;20218;-75
2022/04/25 02:44:24;;;;;;;1.98;0.50;;;21.20;99.90;;;;;;5042356;28;20239;-74
2022/04/25 02:46:55;;;;;;;1.15;0.68;;;21.00;99.90;;;;;;5032437;28;20655;-74
2022/04/25 02:49:25;;;;;;;1.15;0.50;;;20.90;99.90;;;;;;5032915;28;20758;-74
2022/04/25 02:51:56;;;;;;;1.67;0.50;;;20.80;99.90;;;;;;5038759;28;20284;-75
2022/04/25 02:54:29;;;;;;;1.25;0.50;;;20.70;99.90;;;;;;5041874;28;20646;-74
2022/04/25 02:57:00;;;;;;;2.58;0.85;;;20.70;99.90;;;;;;5030354;28;20190;-75
2022/04/25 02:59:31;;;;;;;1.65;0.90;;;20.70;99.90;;;;;;5033093;28;20218;-74
2022/04/25 03:02:01;;;;;;;0.80;0.65;;;20.70;99.90;;;;;;5037055;28;20201;-74
2022/04/25 03:04:32;;;;;;;1.95;0.60;;;20.70;99.90;;;;;;5039678;28;20198;-74
2022/04/25 03:07:03;;;;;;;1.77;0.75;;;20.80;99.90;;;;;;5042326;28;20194;-75
2022/04/25 03:09:35;;;;;;;2.88;0.70;;;20.80;99.90;;;;;;5041509;28;20198;-73
2022/04/25 03:12:06;;;;;;;2.65;0.70;;;20.90;99.90;;;;;;5039192;28;20202;-74
2022/04/25 03:14:37;;;;;;;2.35;0.90;;;21.00;99.90;;;;;;5040269;28;20654;-74
2022/04/25 03:17:07;;;;;;;4.63;0.90;;;21.10;99.90;;;;;;5043307;28;20190;-74
2022/04/25 03:19:38;;;;;;;3.58;0.80;;;21.10;99.90;;;;;;5043318;28;20201;-74
2022/04/25 03:22:08;;;;;;;1.70;0.75;;;21.10;99.90;;;;;;5037987;28;20542;-74
2022/04/25 03:24:41;;;;;;;2.03;0.88;;;21.00;99.90;;;;;;5037190;28;20251;-74
2022/04/25 03:27:11;;;;;;;4.20;0.90;;;21.00;99.90;;;;;;5035785;28;20533;-74
2022/04/25 03:29:42;;;;;;;4.53;1.02;;;21.00;99.90;;;;;;5033584;28;20200;-74
2022/04/25 03:32:13;;;;;;;1.85;0.70;;;21.00;99.90;;;;;;5035129;28;20782;-75
2022/04/25 03:34:43;;;;;;;2.65;0.70;;;21.00;99.90;;;;;;5036049;28;20665;-74
2022/04/25 03:37:14;;;;;;;1.38;0.80;;;21.00;99.90;;;;;;5036627;28;20189;-74
2022/04/25 03:39:46;;;;;;;3.75;0.85;;;20.90;99.90;;;;;;5038600;28;20297;-75
2022/04/25 03:42:17;;;;;;;2.20;0.98;;;20.80;99.90;;;;;;5036967;28;20218;-74
2022/04/25 03:44:48;;;;;;;8.57;1.10;;;20.80;99.90;;;;;;5037019;28;20198;-74
2022/04/25 03:47:18;;;;;;;3.17;0.90;;;20.70;99.90;;;;;;5033558;28;20264;-74
2022/04/25 03:49:49;;;;;;;2.60;0.98;;;20.70;99.90;;;;;;5040270;28;20251;-75
2022/04/25 03:52:19;;;;;;;3.58;1.00;;;20.60;99.90;;;;;;5040339;28;20242;-74
2022/04/25 03:57:38;;;;;;;2.25;0.60;;;20.60;99.90;;;;;;5042069;28;20260;-74
2022/04/25 04:00:11;;;;;;;2.47;0.60;;;20.50;99.90;;;;;;5030756;28;20218;-74
2022/04/25 04:02:41;;;;;;;2.97;0.70;;;20.60;99.90;;;;;;5043133;28;20200;-74
2022/04/25 04:05:12;;;;;;;2.95;0.77;;;20.60;99.90;;;;;;5037519;28;20197;-74
2022/04/25 04:07:43;;;;;;;2.40;0.70;;;20.50;99.90;;;;;;5038242;28;20198;-74
2022/04/25 04:10:16;;;;;;;2.33;0.90;;;20.60;99.90;;;;;;5031124;28;20198;-74
2022/04/25 04:12:47;;;;;;;5.40;0.98;;;20.60;99.90;;;;;;5036078;28;20202;-75
2022/04/25 04:15:18;;;;;;;4.00;0.80;;;20.70;99.90;;;;;;5036928;28;20190;-75
2022/04/25 04:17:49;;;;;;;1.10;0.90;;;20.70;99.90;;;;;;5037840;28;20197;-75
2022/04/25 04:20:19;;;;;;;3.00;0.73;;;20.80;99.90;;;;;;5028175;28;20260;-75
2022/04/25 04:22:50;;;;;;;3.42;1.10;;;20.70;99.90;;;;;;5029270;28;20556;-74
2022/04/25 04:25:22;;;;;;;2.33;0.80;;;20.70;99.90;;;;;;5039813;28;20202;-76
2022/04/25 04:27:53;;;;;;;3.40;0.70;;;20.70;99.90;;;;;;5041735;28;20642;-74
2022/04/25 04:30:24;;;;;;;1.50;0.50;;;20.80;99.90;;;;;;5039119;28;20205;-74
2022/04/25 04:32:56;;;;;;;2.35;0.73;;;20.80;99.90;;;;;;5038230;28;20598;-76
2022/04/25 04:38:13;;;;;;;3.40;0.70;;;20.80;99.90;;;;;;5045893;28;20201;-77
2022/04/25 04:40:45;;;;;;;2.38;0.73;;;20.80;99.90;;;;;;5042170;28;20681;-75
2022/04/25 04:43:16;;;;;;;1.45;0.63;;;20.80;99.90;;;;;;5032908;28;20649;-74
2022/04/25 04:45:47;;;;;;;2.05;0.70;;;20.80;99.90;;;;;;5030052;28;20214;-74
2022/04/25 04:48:18;;;;;;;3.00;0.50;;;20.80;99.90;;;;;;5041199;28;20191;-76
2022/04/25 04:50:50;;;;;;;1.38;0.38;;;20.90;99.90;;;;;;5042980;28;20304;-76
2022/04/25 04:53:21;;;;;;;1.27;0.50;;;20.80;99.90;;;;;;5034435;28;20198;-75
2022/04/25 04:55:54;;;;;;;1.90;0.50;;;20.80;99.90;;;;;;5033950;28;20327;-74
2022/04/25 04:58:25;;;;;;;2.50;0.50;;;20.80;99.90;;;;;;5036136;28;20556;-77
2022/04/25 05:00:55;;;;;;;1.60;0.68;;;20.70;99.90;;;;;;5027599;28;20211;-74
2022/04/25 05:03:26;;;;;;;2.05;0.63;;;20.60;99.90;;;;;;5042636;28;20194;-74
2022/04/25 05:05:56;;;;;;;2.42;0.50;;;20.50;99.90;;;;;;5039724;28;20190;-73
2022/04/25 05:08:27;;;;;;;1.13;0.35;;;20.50;99.90;;;;;;5038596;28;20201;-74
2022/04/25 05:11:00;;;;;;;0.88;0.40;;;20.60;99.90;;;;;;5034053;28;20190;-74
2022/04/25 05:13:31;;;;;;;2.72;0.38;;;20.70;99.90;;;;;;5045134;28;20634;-75
2022/04/25 05:16:01;;;;;;;0.75;0.30;;;20.70;99.90;;;;;;5035151;28;20287;-75
2022/04/25 05:18:33;;;;;;;3.20;0.40;;;20.70;99.90;;;;;;5041295;28;20205;-77
2022/04/25 05:21:04;;;;;;;0.40;0.20;;;20.60;99.90;;;;;;5040435;28;20306;-75
2022/04/25 05:23:35;;;;;;;1.80;0.40;;;20.60;99.90;;;;;;5038245;28;20563;-75
2022/04/25 05:26:08;;;;;;;0.38;0.20;;;20.60;99.90;;;;;;5030692;28;20205;-77
2022/04/25 05:28:39;;;;;;;0.82;0.20;;;20.60;99.90;;;;;;5038052;28;20193;-77
2022/04/25 05:31:09;;;;;;;0.90;0.20;;;20.70;99.90;;;;;;5043296;28;20201;-75
2022/04/25 05:33:40;;;;;;;0.77;0.20;;;20.70;99.90;;;;;;5048187;28;20194;-74
2022/04/25 05:36:11;;;;;;;1.20;0.50;;;20.60;99.90;;;;;;5033728;28;20610;-75
2022/04/25 05:38:41;;;;;;;1.25;0.70;;;20.70;99.90;;;;;;5040154;28;20194;-76
2022/04/25 05:41:14;;;;;;;2.47;0.77;;;20.60;99.90;;;;;;5041889;28;20230;-75
2022/04/25 05:43:45;;;;;;;1.17;0.40;;;20.60;99.90;;;;;;5035677;28;20610;-74
2022/04/25 05:46:15;;;;;;;1.10;0.20;;;20.70;99.90;;;;;;5036554;28;20202;-76
2022/04/25 05:54:19;;;;;;;0.30;0.30;;;20.70;99.90;;;;;;5049491;28;20550;-75
2022/04/25 05:56:52;;;;;;;0.90;0.40;;;20.70;99.90;;;;;;5044067;28;21157;-76
2022/04/25 05:59:23;;;;;;;2.60;1.00;;;20.60;99.90;;;;;;5043485;28;20244;-75
2022/04/25 06:01:55;;;;;;;0.40;0.30;;;20.60;99.90;;;;;;5044381;28;20218;-76
2022/04/25 06:04:25;;;;;;;1.65;0.40;;;20.50;99.90;;;;;;5040485;28;20281;-75
2022/04/25 06:06:57;;;;;;;2.33;0.40;;;20.60;99.90;;;;;;5043128;28;20193;-79
2022/04/25 06:09:28;;;;;;;0.85;0.40;;;20.40;99.90;;;;;;5036704;28;20648;-79
2022/04/25 06:12:00;;;;;;;1.30;0.20;;;20.30;99.90;;;;;;5039678;28;20244;-75
2022/04/25 06:14:31;;;;;;;1.75;0.28;;;20.30;99.90;;;;;;5044482;28;20194;-82
2022/04/25 06:17:02;;;;;;;18.95;9.52;;;20.30;99.90;;;;;;5049416;28;20248;-74
2022/04/25 06:19:33;;;;;;;3.20;0.75;;;20.30;99.90;;;;;;5051827;28;20193;-75
2022/04/25 06:22:03;;;;;;;1.63;0.70;;;20.30;99.90;;;;;;5046148;28;20222;-85
2022/04/25 06:24:34;;;;;;;1.05;0.30;;;20.20;99.90;;;;;;5033508;28;20187;-83
2022/04/25 06:27:09;;;;;;;1.13;0.32;;;20.20;99.90;;;;;;5017727;28;20249;-78
2022/04/25 06:29:39;;;;;;;0.70;0.38;;;20.20;99.90;;;;;;5024660;28;20223;-75
2022/04/25 06:32:11;;;;;;;1.63;1.13;;;20.10;99.90;;;;;;5041653;28;20221;-75
2022/04/25 06:34:42;;;;;;;0.90;0.32;;;20.10;99.90;;;;;;5052927;28;20540;-74
2022/04/25 06:37:12;;;;;;;2.17;0.60;;;20.10;99.90;;;;;;5053017;28;20205;-75
2022/04/25 06:39:43;;;;;;;1.08;0.55;;;20.00;99.90;;;;;;5046321;28;20285;-75
2022/04/25 06:42:16;;;;;;;0.52;0.43;;;20.10;99.90;;;;;;5034385;28;20663;-75
2022/04/25 06:44:47;;;;;;;3.80;0.60;;;20.10;99.90;;;;;;5047485;28;20190;-76
2022/04/25 06:47:17;;;;;;;0.93;0.50;;;20.00;99.90;;;;;;5044538;28;20707;-78
2022/04/25 06:49:48;;;;;;;1.40;0.40;;;20.00;99.90;;;;;;5044481;28;20194;-78
2022/04/25 06:52:20;;;;;;;0.40;0.40;;;20.00;99.90;;;;;;5027427;28;20237;-76
2022/04/25 06:54:51;;;;;;;3.70;0.68;;;20.00;99.90;;;;;;5034139;28;20725;-77
2022/04/25 06:57:23;;;;;;;0.75;0.60;;;20.00;99.90;;;;;;5038185;28;20198;-76
2022/04/25 06:59:54;;;;;;;2.17;0.70;;;19.90;99.90;;;;;;5047484;28;20194;-77
2022/04/25 07:02:25;;;;;;;3.70;0.90;;;19.80;99.90;;;;;;5034223;28;20292;-76
2022/04/25 07:04:55;;;;;;;2.05;0.80;;;19.80;99.90;;;;;;5037261;28;20198;-76
2022/04/25 07:07:26;;;;;;;2.88;0.68;;;19.80;99.90;;;;;;5023426;28;20620;-76
2022/04/25 07:09:56;;;;;;;2.85;0.73;;;19.70;99.90;;;;;;5017978;28;20190;-75
2022/04/25 07:12:29;;;;;;;1.42;0.57;;;19.70;99.90;;;;;;5039098;28;20245;-76
2022/04/25 07:14:59;;;;;;;2.80;0.68;;;19.60;99.90;;;;;;5039637;28;20205;-77
2022/04/25 07:17:31;;;;;;;1.45;0.68;;;19.60;99.90;;;;;;5047552;28;20197;-79
2022/04/25 07:20:01;;;;;;;2.88;0.65;;;19.50;99.90;;;;;;5040870;28;20626;-77
2022/04/25 07:31:00;;;;;;;2.10;0.70;;;19.30;99.90;;;;;;5043423;28;20690;-78
2022/04/25 07:33:31;;;;;;;1.38;0.70;;;19.30;99.90;;;;;;5029472;28;20194;-76
2022/04/25 07:36:01;;;;;;;3.90;0.90;;;19.30;99.90;;;;;;5016496;28;20205;-76
2022/04/25 07:38:32;;;;;;;0.88;0.70;;;19.30;99.90;;;;;;5035708;28;20683;-76
2022/04/25 07:41:03;;;;;;;1.35;0.90;;;19.30;99.90;;;;;;5050163;28;20233;-78
2022/04/25 07:43:35;;;;;;;4.13;1.00;;;19.40;99.90;;;;;;5039544;28;20197;-79
2022/04/25 07:46:06;;;;;;;4.28;1.00;;;19.30;99.90;;;;;;5035506;28;20281;-76
2022/04/25 07:48:37;;;;;;;2.78;1.10;;;19.30;99.90;;;;;;5045718;28;20201;-78
2022/04/25 07:51:07;;;;;;;3.70;1.10;;;19.30;99.90;;;;;;5030895;28;20238;-75
2022/04/25 07:53:38;;;;;;;3.42;1.27;;;19.20;99.90;;;;;;5033682;28;20197;-79
2022/04/25 07:56:09;;;;;;;3.70;1.40;;;19.20;99.90;;;;;;5023432;28;20199;-77
2022/04/25 07:58:41;;;;;;;2.30;1.10;;;19.20;99.90;;;;;;5028233;28;20190;-76
2022/04/25 08:01:12;;;;;;;2.67;0.93;;;19.20;99.90;;;;;;5032551;28;20300;-77
2022/04/25 08:03:42;;;;;;;1.85;1.20;;;19.20;99.90;;;;;;5040584;28;20656;-79
2022/04/25 08:06:13;;;;;;;2.30;1.02;;;19.20;99.90;;;;;;5051307;28;20247;-76
2022/04/25 08:08:44;;;;;;;2.42;0.80;;;19.10;99.90;;;;;;5048154;28;20653;-76
2022/04/25 08:11:15;;;;;;;2.17;0.77;;;19.20;99.90;;;;;;5036639;28;20195;-76
2022/04/25 08:19:35;;;;;;;2.47;0.90;;;19.10;99.90;;;;;;5045790;28;20202;-77
2022/04/25 08:22:07;;;;;;;1.70;0.80;;;19.00;99.90;;;;;;5032301;28;20213;-76
2022/04/25 08:24:38;;;;;;;1.60;0.80;;;19.00;99.90;;;;;;5047898;28;20664;-77
2022/04/25 08:27:09;;;;;;;2.38;0.85;;;19.00;99.90;;;;;;5035296;28;20277;-75
2022/04/25 08:29:41;;;;;;;1.27;0.65;;;19.00;99.90;;;;;;5037373;28;20653;-78
2022/04/25 08:32:12;;;;;;;2.10;1.20;;;18.90;99.90;;;;;;5030394;28;20244;-77
2022/04/25 08:34:43;;;;;;;1.58;0.85;;;18.90;99.90;;;;;;5037381;28;20205;-78
2022/04/25 08:37:16;;;;;;;2.15;0.65;;;18.90;99.90;;;;;;5034079;28;20217;-78
2022/04/25 08:39:46;;;;;;;3.25;0.98;;;18.80;99.90;;;;;;5040593;28;20190;-77
2022/04/25 08:42:17;;;;;;;3.63;0.95;;;18.80;99.90;;;;;;5020723;28;20322;-76
2022/04/25 08:44:52;;;;;;;2.08;0.82;;;18.80;99.90;;;;;;5013606;28;20249;-77
2022/04/25 08:47:24;;;;;;;1.92;1.00;;;18.70;99.90;;;;;;5036682;28;20585;-79
2022/04/25 08:49:57;;;;;;;3.40;1.30;;;18.70;99.90;;;;;;5042715;28;20198;-76
2022/04/25 08:52:31;;;;;;;2.63;1.70;;;18.60;99.90;;;;;;5043655;28;20818;-76
2022/04/25 08:55:02;;;;;;;3.50;2.10;;;18.50;99.90;;;;;;5049236;28;20704;-78
2022/04/25 08:57:35;;;;;;;4.75;2.33;;;18.40;99.90;;;;;;5032817;28;20198;-76
2022/04/25 09:00:10;;;;;;;5.75;2.40;;;18.40;99.90;;;;;;5036953;28;20190;-77
2022/04/25 09:02:41;;;;;;;4.85;2.25;;;18.40;99.90;;;;;;5032978;28;20260;-76
2022/04/25 09:05:12;;;;;;;4.10;2.25;;;18.40;99.90;;;;;;5032642;28;20198;-76
2022/04/25 09:07:43;;;;;;;7.30;1.90;;;18.30;99.90;;;;;;5038366;28;20214;-79
2022/04/25 09:10:14;;;;;;;2.33;1.40;;;18.30;99.90;;;;;;5045712;28;20198;-77
2022/04/25 09:12:47;;;;;;;3.65;1.70;;;18.30;99.90;;;;;;5051419;28;20251;-76
2022/04/25 09:15:23;;;;;;;2.85;1.50;;;18.40;99.90;;;;;;5038685;28;20197;-77
2022/04/25 09:17:54;;;;;;;3.47;1.65;;;18.20;99.90;;;;;;5037948;28;20197;-77
2022/04/25 09:20:26;;;;;;;6.18;1.50;;;18.20;99.90;;;;;;5029134;28;20236;-77
2022/04/25 09:22:56;;;;;;;4.90;2.13;;;18.20;99.90;;;;;;5049063;28;20209;-76
2022/04/25 09:25:28;;;;;;;4.78;1.80;;;18.10;99.90;;;;;;5043804;28;20197;-77
2022/04/25 09:28:12;;;;;;;4.15;2.03;;;18.10;99.90;;;;;;5043588;28;20198;-77
2022/04/25 09:31:00;;;;;;;3.65;2.20;;;18.10;99.90;;;;;;5041669;28;20205;-76
2022/04/25 09:33:31;;;;;;;3.33;1.70;;;18.00;99.90;;;;;;5033041;28;20276;-78
2022/04/25 09:36:02;;;;;;;5.18;1.40;;;18.00;99.90;;;;;;5035752;28;20205;-79
2022/04/25 09:38:34;;;;;;;2.35;1.20;;;18.00;99.90;;;;;;5038640;28;20198;-76
2022/04/25 09:41:05;;;;;;;5.28;1.52;;;18.00;99.90;;;;;;5033873;28;20225;-77
2022/04/25 09:43:37;;;;;;;2.85;1.50;;;18.00;99.90;;;;;;5040475;28;20193;-77
2022/04/25 09:46:10;;;;;;;3.92;1.73;;;18.00;99.90;;;;;;5029126;28;20301;-77
2022/04/25 09:48:43;;;;;;;3.45;1.45;;;17.90;99.90;;;;;;5034352;28;20206;-77
2022/04/25 09:51:16;;;;;;;2.03;1.40;;;18.00;99.90;;;;;;5041337;28;20712;-79
2022/04/25 09:53:49;;;;;;;1.77;1.30;;;18.00;99.90;;;;;;5038471;28;20657;-78
2022/04/25 09:56:21;;;;;;;2.28;1.42;;;18.00;99.90;;;;;;5039728;28;20198;-77
2022/04/25 09:59:02;;;;;;;4.00;1.42;;;18.00;99.90;;;;;;5043410;28;20194;-77
2022/04/25 10:01:36;;;;;;;3.00;1.65;;;18.00;99.90;;;;;;5026382;28;20221;-76
2022/04/25 10:04:08;;;;;;;3.78;1.63;;;18.00;99.90;;;;;;5045286;28;20202;-78
2022/04/25 10:06:39;;;;;;;3.10;2.13;;;17.90;99.90;;;;;;5054020;28;20251;-75
2022/04/25 10:09:09;;;;;;;4.03;2.15;;;17.90;99.90;;;;;;5052592;28;20189;-76
2022/04/25 10:11:45;;;;;;;4.45;1.90;;;17.90;99.90;;;;;;5033517;28;20193;-76
2022/04/25 10:14:16;;;;;;;3.47;2.10;;;17.80;99.90;;;;;;5037587;28;20200;-76
2022/04/25 10:16:50;;;;;;;3.40;1.85;;;17.80;99.90;;;;;;5037621;28;20190;-75
2022/04/25 10:19:23;;;;;;;5.68;2.00;;;17.80;99.90;;;;;;5034337;28;20209;-76
2022/04/25 10:21:55;;;;;;;2.88;1.80;;;17.80;99.90;;;;;;5034705;28;20609;-77
2022/04/25 10:24:26;;;;;;;5.05;1.90;;;17.70;99.90;;;;;;5034979;28;20187;-75
2022/04/25 10:26:58;;;;;;;4.22;1.90;;;17.70;99.90;;;;;;5035211;28;20202;-75
2022/04/25 10:29:32;;;;;;;7.22;2.40;;;17.70;99.90;;;;;;5032096;28;20199;-75
2022/04/25 10:32:05;;;;;;;5.80;2.13;;;17.60;99.90;;;;;;5034521;28;20194;-75
2022/04/25 10:34:51;;;;;;;5.10;2.10;;;17.60;99.90;;;;;;5029928;28;20198;-75
2022/04/25 10:37:36;;;;;;;2.70;1.73;;;17.60;99.90;;;;;;5041650;28;20563;-75
2022/04/25 10:40:08;;;;;;;6.43;2.03;;;17.60;99.90;;;;;;5037498;28;20232;-76
2022/04/25 10:46:00;;;;;;;3.03;1.70;;;17.50;99.90;;;;;;5036043;28;20340;-75
2022/04/25 10:48:50;;;;;;;4.43;1.60;;;17.50;99.90;;;;;;5040370;28;20251;-75
2022/04/25 10:51:38;;;;;;;3.72;1.67;;;17.50;99.90;;;;;;5044250;28;20230;-75
2022/04/25 10:54:09;;;;;;;3.83;1.77;;;17.50;99.90;;;;;;5039925;28;20697;-75
2022/04/25 10:57:00;;;;;;;6.50;1.70;;;17.50;99.90;;;;;;5040386;28;20194;-75
2022/04/25 10:59:31;;;;;;;3.67;1.55;;;17.50;99.90;;;;;;5025214;28;20234;-75
2022/04/25 11:02:02;;;;;;;5.22;1.80;;;17.50;99.90;;;;;;5038961;28;20299;-77
2022/04/25 11:04:35;;;;;;;3.75;1.77;;;17.40;99.90;;;;;;5054475;28;20205;-75
2022/04/25 11:07:25;;;;;;;5.63;2.08;;;17.40;99.90;;;;;;5044408;28;20675;-76
2022/04/25 11:09:56;;;;;;;4.10;2.00;;;17.40;99.90;;;;;;5040721;28;20670;-76
2022/04/25 11:12:59;;;;;;;6.32;2.20;;;17.30;99.90;;;;;;5036881;28;20703;-75
2022/04/25 11:15:46;;;;;;;4.68;2.13;;;17.30;99.90;;;;;;5041225;28;20259;-76
2022/04/25 11:18:33;;;;;;;4.47;2.10;;;17.20;99.90;;;;;;5041066;28;20190;-77
2022/04/25 11:21:07;;;;;;;6.65;2.03;;;17.20;99.90;;;;;;5017398;28;20190;-76
2022/04/25 11:23:49;;;;;;;4.95;2.00;;;17.20;99.90;;;;;;5036136;28;20208;-75
2022/04/25 11:26:50;;;;;;;5.07;2.00;;;17.20;99.90;;;;;;5035729;28;20660;-75
2022/04/25 11:29:21;;;;;;;7.07;1.95;;;17.10;99.90;;;;;;5032812;28;20205;-75
2022/04/25 11:31:52;;;;;;;6.22;2.70;;;17.00;99.90;;;;;;5030775;28;20199;-76
2022/04/25 11:34:26;;;;;;;3.50;2.20;;;17.00;99.90;;;;;;5040696;28;20199;-75
2022/04/25 11:36:58;;;;;;;6.90;2.38;;;17.00;99.90;;;;;;5033807;28;20194;-76
2022/04/25 11:42:18;;;;;;;4.88;2.40;;;16.90;99.90;;;;;;5038104;28;20271;-76
2022/04/25 11:44:49;;;;;;;5.38;2.38;;;16.90;99.90;;;;;;5038101;28;20236;-75
2022/04/25 11:47:22;;;;;;;6.18;2.60;;;16.90;99.90;;;;;;5033534;28;20313;-76
2022/04/25 11:50:00;;;;;;;6.43;2.78;;;16.90;99.90;;;;;;5032955;28;20594;-74
2022/04/25 11:52:33;;;;;;;7.25;3.08;;;16.80;99.90;;;;;;5039439;28;20233;-77
2022/04/25 11:55:04;;;;;;;5.88;2.83;;;16.80;99.90;;;;;;5041037;28;20247;-77
2022/04/25 11:57:42;;;;;;;6.10;2.47;;;16.90;99.90;;;;;;5039694;28;20198;-77
2022/04/25 12:00:15;;;;;;;6.32;2.38;;;16.90;99.90;;;;;;5041217;28;20193;-75
2022/04/25 12:02:47;;;;;;;4.50;2.53;;;16.80;99.90;;;;;;5028533;28;20226;-77
2022/04/25 12:05:29;;;;;;;7.32;2.63;;;16.80;99.90;;;;;;5043181;28;20186;-77
2022/04/25 12:16:22;;;;;;;3.55;2.10;;;16.80;99.90;;;;;;5039662;28;20201;-76
2022/04/25 12:18:54;;;;;;;5.57;2.10;;;16.90;99.90;;;;;;5039800;28;20198;-75
2022/04/25 12:21:27;;;;;;;6.82;2.38;;;16.80;99.90;;;;;;5031924;28;20182;-78
2022/04/25 12:24:00;;;;;;;6.45;2.42;;;16.90;99.90;;;;;;5024664;28;20214;-78
2022/04/25 12:26:32;;;;;;;3.63;1.88;;;16.80;99.90;;;;;;5041365;28;20657;-78
2022/04/25 12:29:03;;;;;;;5.25;2.20;;;16.80;99.90;;;;;;5036466;28;20201;-76
2022/04/25 12:31:38;;;;;;;4.68;2.30;;;16.80;99.90;;;;;;5032960;28;20226;-76
2022/04/25 12:34:12;;;;;;;3.90;2.10;;;16.80;99.90;;;;;;5030859;28;20193;-77
2022/04/25 12:36:54;;;;;;;5.50;2.22;;;16.80;99.90;;;;;;5030807;28;20189;-78
2022/04/25 12:39:27;;;;;;;5.90;2.60;;;16.80;99.90;;;;;;5041074;28;20182;-76
2022/04/25 12:41:59;;;;;;;5.78;2.78;;;16.70;99.90;;;;;;5031197;28;20225;-78
2022/04/25 12:44:31;;;;;;;7.50;2.80;;;16.70;99.90;;;;;;5035179;28;20209;-75
2022/04/25 12:47:05;;;;;;;6.13;2.95;;;16.60;99.90;;;;;;5040038;28;20206;-76
2022/04/25 12:49:37;;;;;;;5.82;2.78;;;16.50;99.90;;;;;;5046856;28;20259;-75
2022/04/25 12:52:09;;;;;;;5.80;2.53;;;16.60;99.90;;;;;;5042524;28;20651;-77
2022/04/25 12:54:51;;;;;;;6.35;2.40;;;16.50;99.90;;;;;;5038358;28;20206;-77
2022/04/25 12:57:23;;;;;;;4.88;2.50;;;16.50;99.90;;;;;;5045575;28;20209;-76
2022/04/25 13:00:03;;;;;;;5.90;2.20;;;16.50;99.90;;;;;;5032379;28;20190;-75
2022/04/25 13:02:37;;;;;;;5.13;2.50;;;16.40;99.90;;;;;;5040099;28;20218;-76
2022/04/25 13:05:09;;;;;;;5.82;2.70;;;16.40;99.90;;;;;;5029759;28;20657;-76
2022/04/25 13:07:41;;;;;;;5.50;2.50;;;16.40;99.90;;;;;;5041544;28;20186;-77
2022/04/25 13:10:15;;;;;;;4.20;2.55;;;16.40;99.90;;;;;;5030845;28;20191;-77
2022/04/25 13:12:47;;;;;;;4.53;2.50;;;16.40;99.90;;;;;;5043203;28;20619;-78
2022/04/25 13:15:19;;;;;;;4.80;2.40;;;16.40;99.90;;;;;;5037810;28;20551;-77
2022/04/25 13:17:51;;;;;;;5.93;2.60;;;16.40;99.90;;;;;;5036481;28;20202;-77
2022/04/25 13:20:23;;;;;;;9.15;2.80;;;16.40;99.90;;;;;;5040355;28;20273;-77
2022/04/25 13:22:54;;;;;;;6.30;2.70;;;16.50;99.90;;;;;;5041538;28;20237;-77
2022/04/25 13:25:27;;;;;;;6.18;2.72;;;16.50;99.90;;;;;;5032245;28;20202;-76
2022/04/25 13:27:57;;;;;;;7.80;3.03;;;16.50;99.90;;;;;;5035351;28;20252;-77
2022/04/25 13:30:28;;;;;;;6.70;3.13;;;16.50;99.90;;;;;;5037143;28;20229;-76
2022/04/25 13:32:59;;;;;;;6.28;3.00;;;16.50;99.90;;;;;;5035411;28;20603;-78
2022/04/25 13:35:29;;;;;;;6.18;3.17;;;16.60;99.90;;;;;;5040889;28;20189;-76
2022/04/25 13:38:00;;;;;;;6.65;3.70;;;16.60;99.90;;;;;;5040789;28;20202;-78
2022/04/25 13:40:33;;;;;;;6.05;3.35;;;16.70;99.90;;;;;;5047034;28;20233;-78
2022/04/25 13:43:04;;;;;;;5.75;3.38;;;16.60;99.90;;;;;;5030683;28;20245;-76
2022/04/25 13:45:35;;;;;;;5.72;3.30;;;16.70;99.90;;;;;;5038794;28;20245;-76
2022/04/25 13:48:06;;;;;;;7.85;3.00;;;16.70;99.90;;;;;;5035273;28;20190;-76
2022/04/25 13:50:37;;;;;;;4.47;2.72;;;16.70;99.90;;;;;;5044639;28;20327;-76
2022/04/25 13:53:08;;;;;;;5.28;3.03;;;16.70;99.90;;;;;;5046344;22;20242;-72
2022/04/25 13:55:40;;;;;;;7.30;2.92;;;16.70;99.90;;;;;;5028032;28;20611;-71
2022/04/25 13:58:11;;;;;;;4.97;2.83;;;16.60;99.90;;;;;;5035381;28;20629;-72
2022/04/25 14:00:41;;;;;;;6.63;2.88;;;16.60;99.90;;;;;;5033705;28;20252;-71